Aeroporto :
LOGIN :

Iscrizione | Disclaimer

   EN    FR    IT 

 










Sommario :    VFR   VFR Marginale   IFR   IFR Intensivo   IFR Molto Intensivo
Visibilità : 
Base nubi : 
>= 8 km
>= 3000ft
5 / 8 km
1000 / 3000 ft
1500m / 5 km
500 / 1000 ft
800 / 1500m
200 / 500 ft
< 800m
< 200 ft
Simboli :   Temporali  Nebbia  Neve Forte  Precipitazioni Forti  Vento > 20 kt
SIGMETs :   Varie  Temporali  Ghiacco  Turbolenza  Onda orograficha  Ceneri Vulcaniche






- Altitudine del aeroporto : 13 ft
- Codice IATA : CEQ


LFMD - Cannes Mandelieu

ULTIMO METAR :
  • 212330Z AUTO VRB03KT 9999 SCT076 OVC100 12/03 Q1009

METARs OBSOLETI :
  • 212300Z AUTO VRB02KT 9999 OVC068 12/03 Q1009
  • 212230Z AUTO 09004KT 020V180 9999 OVC060 12/04 Q1009
  • 212200Z AUTO 07007KT 350V140 9999 FEW046 OVC054 13/05 Q1009
  • 212130Z AUTO 07010G24KT 010V130 9999 BKN043 OVC074 13/05 Q1009
  • 212100Z AUTO 07009KT 350V120 9999 BKN038 BKN070 BKN092 13/05 Q1008 TEMPO 07020KT BECMG FEW060TCU
  • 212030Z AUTO 08013G24KT 030V180 9999 FEW037 14/07 Q1008 TEMPO 07020KT BECMG FEW060TCU
  • 212000Z AUTO 06011G23KT 350V110 9999 ///CB 14/09 Q1007 NOSIG
  • 211930Z AUTO 33005KT 290V030 CAVOK 14/08 Q1007 BECMG FEW060TCU

TAF AMD TAF LFMD
Valido dal 21 a 20 ore il 22 a 15 ore UTC


212000Z 2120/2215 07010G20KT 9999 FEW060TCU
TEMPO 2120/2122 07020KT
BECMG 2123/2201 25008KT
PROB30
TEMPO 2204/2208 -SHRA BKN050TCU
BECMG 2208/2210 19010KT
PROB40
TEMPO 2212/2215 VRB15G25KT 2000 TSRA BKN040CB
ATIS : +33 4 92 19 94 92



MetMap, La meteo Aeronautica in un colpo d'occhio ! - Copyright ORBIFLY Dicembre 2007 - Disclaimer

ORBIFLY MET'MAP TEAM :

Programmazione e sviluppo : Alexandra Zaïnal
Concezione : Baudouin d'Aumeries
Supporto tecnico e logistico : Manuel Goepfert
Aiuto : Marc-Olivier Méhu
Aiuto per la traduzione : Arnaldo La Scala




FONTI E CREDITI :

   NOAA